Aérodrome :
LOGIN :

S'inscrire | Disclaimer

   EN    FR    IT 

 










Légende :    VFR   VFR Marginal   IFR   IFR Intensif   IFR Très Intensif
Visi : 
Plafond : 
>= 8 km
>= 3000ft
5 à 8 km
1000 à 3000 ft
1500m à 5 km
500 à 1000 ft
800 à 1500m
200 à 500 ft
< 800m
< 200 ft
Symboles :   Orages  Brouillard  Fortes neiges  Fortes précipitations  Vent > 20 kt
SIGMETs :   Divers  Orages  Givrage  Turbulence  Onde Orograph.  Cendres Volcan.







- Altitude de l'aérodrome : 242 ft
- Code IATA : DUB


EIDW - Dublin

DERNIER METAR :
  • 240030Z VRB02KT 8000 FEW014 SCT080 BKN130 10/08 Q0993 NOSIG

METARs EXPIRÉS :
  • 240000Z 04005KT 010V070 8000 FEW014 BKN130 10/09 Q0993 NOSIG
  • 232330Z 08005KT 8000 FEW014 BKN120 11/08 Q0993 NOSIG
  • 232300Z 10004KT 9999 FEW014 BKN130 12/09 Q0994 NOSIG
  • 232230Z 09005KT 9999 FEW014 BKN100 12/09 Q0994 NOSIG
  • 232200Z 10005KT 9999 FEW014 BKN130 12/09 Q0994 NOSIG

TAF TAF EIDW
Valide du 24 à 00h jusqu'au 25 à 00h UTC


232300Z 2400/2424 VRB03KT 9999 FEW020 SCT040
BECMG 2403/2406 07005KT
PROB30
TEMPO 2403/2409 3000 BR
BECMG 2407/2409 10010KT
PROB30
TEMPO 2409/2412 4000 -RA BR BKN010
TEMPO 2412/2417 4000 -RA BKN008
BECMG 2414/2417 21010KT
PROB40
TEMPO 2415/2417 3000 RA
BECMG 2419/2421 15010KT
Pas de NOTAMs connus pour ce terrain.



MET'MAP, la Météo Aéronautique d'un coup d'oeil ! - Copyright ORBIFLY Décembre 2007 - Disclaimer

ORBIFLY MET'MAP TEAM :

Programmation & Développement : Alexandra Zaïnal
Conception & Développement : Baudouin d'Aumeries
Co-Programmation & Développement : Marc-Olivier Méhu
Soutien technique & logistique : Manuel Goepfert

Contact : metmap@orbifly.com




SOURCES & CREDITS :

   NOAA